createdAt,value
2023-04-28T00:00:05.873Z,75.11
2023-04-28T00:02:32.863Z,74.93
2023-04-28T00:05:00.407Z,74.97
2023-04-28T00:07:27.253Z,74.78
2023-04-28T00:09:54.159Z,74.85
2023-04-28T00:12:20.925Z,74.79
2023-04-28T00:14:47.844Z,74.52
2023-04-28T00:17:14.688Z,74.31
2023-04-28T00:19:42.364Z,74.32
2023-04-28T00:22:09.809Z,74.49
2023-04-28T00:24:36.753Z,74.32
2023-04-28T00:27:03.896Z,74.28
2023-04-28T00:29:30.849Z,74.46
2023-04-28T00:31:57.651Z,74.31
2023-04-28T00:34:24.653Z,74.13
2023-04-28T00:36:51.677Z,74.26
2023-04-28T00:39:18.821Z,73.92
2023-04-28T00:41:45.665Z,73.89
2023-04-28T00:44:12.899Z,73.78
2023-04-28T00:46:39.779Z,73.58
2023-04-28T00:49:06.612Z,73.60
2023-04-28T00:51:33.978Z,73.53
2023-04-28T00:54:01.031Z,73.41
2023-04-28T00:56:33.774Z,73.19
2023-04-28T00:59:00.790Z,73.13
2023-04-28T01:01:27.680Z,73.51
2023-04-28T01:03:54.724Z,73.54
2023-04-28T01:06:22.075Z,73.49
2023-04-28T01:08:50.473Z,73.34
2023-04-28T01:11:17.862Z,73.14
2023-04-28T01:14:01.885Z,73.22
2023-04-28T01:16:32.927Z,73.49
2023-04-28T01:19:00.025Z,73.71
2023-04-28T01:21:33.344Z,73.73
2023-04-28T01:24:20.459Z,73.77
2023-04-28T01:26:47.406Z,73.82
2023-04-28T01:29:14.346Z,73.51
2023-04-28T01:31:41.771Z,73.38
2023-04-28T01:34:08.754Z,73.63
2023-04-28T01:36:37.808Z,73.65
2023-04-28T01:39:05.600Z,73.58
2023-04-28T01:41:36.350Z,73.33
2023-04-28T01:44:05.128Z,73.22
2023-04-28T01:46:32.086Z,73.41
2023-04-28T01:48:59.125Z,73.11
2023-04-28T01:51:27.306Z,72.98
2023-04-28T01:53:54.461Z,72.83
2023-04-28T01:56:21.611Z,72.76
2023-04-28T01:58:49.458Z,72.50
2023-04-28T02:01:16.772Z,72.51
2023-04-28T02:03:44.487Z,72.47
2023-04-28T02:06:11.539Z,72.29
2023-04-28T02:08:38.382Z,72.32
2023-04-28T02:11:06.030Z,72.14
2023-04-28T02:13:32.873Z,72.20
2023-04-28T02:16:02.838Z,72.35
2023-04-28T02:18:29.831Z,72.33
2023-04-28T02:21:08.230Z,72.07
2023-04-28T02:23:34.984Z,72.24
2023-04-28T02:26:02.026Z,72.08
2023-04-28T02:28:29.486Z,71.93
2023-04-28T02:31:05.338Z,71.95
2023-04-28T02:33:32.592Z,72.09
2023-04-28T02:36:00.720Z,71.91
2023-04-28T02:38:27.830Z,71.84
2023-04-28T02:41:01.418Z,71.77
2023-04-28T02:43:28.565Z,71.86
2023-04-28T02:45:55.600Z,71.69
2023-04-28T02:48:22.665Z,71.69
2023-04-28T02:50:49.616Z,71.75
2023-04-28T02:53:16.856Z,71.94
2023-04-28T02:55:43.805Z,71.86
2023-04-28T02:58:10.805Z,71.64
2023-04-28T03:00:37.703Z,71.69
2023-04-28T03:03:04.807Z,71.67
2023-04-28T03:05:31.817Z,71.59
2023-04-28T03:07:59.468Z,71.44
2023-04-28T03:10:26.618Z,71.42
2023-04-28T03:12:53.585Z,71.42
2023-04-28T03:15:20.797Z,71.34
2023-04-28T03:17:48.224Z,71.29
2023-04-28T03:20:15.564Z,71.37
2023-04-28T03:22:42.447Z,71.16
2023-04-28T03:25:09.807Z,70.77
2023-04-28T03:27:43.208Z,70.70
2023-04-28T03:30:10.872Z,70.47
2023-04-28T03:32:37.834Z,70.08
2023-04-28T03:35:05.367Z,70.05
2023-04-28T03:37:32.418Z,69.96
2023-04-28T03:39:59.368Z,69.74
2023-04-28T03:42:26.753Z,69.84
2023-04-28T03:45:11.204Z,69.98
2023-04-28T03:47:38.010Z,69.96
2023-04-28T03:50:05.283Z,69.98
2023-04-28T03:52:32.485Z,70.27
2023-04-28T03:54:59.360Z,70.31
2023-04-28T03:57:26.214Z,70.17
2023-04-28T03:59:53.654Z,70.20
2023-04-28T04:02:20.705Z,70.09
2023-04-28T04:04:48.080Z,69.87
2023-04-28T04:07:15.212Z,69.78
2023-04-28T04:09:42.150Z,69.55
2023-04-28T04:12:09.310Z,69.16
2023-04-28T04:14:37.118Z,69.23
2023-04-28T04:17:04.107Z,69.23
2023-04-28T04:19:31.159Z,68.63
2023-04-28T04:21:58.006Z,68.35
2023-04-28T04:24:25.469Z,68.18
2023-04-28T04:26:52.933Z,68.02
2023-04-28T04:29:27.640Z,67.79
2023-04-28T04:31:54.688Z,67.32
2023-04-28T04:34:21.946Z,67.02
2023-04-28T04:36:49.016Z,66.66
2023-04-28T04:39:16.159Z,66.93
2023-04-28T04:41:43.091Z,66.55
2023-04-28T04:44:30.168Z,66.25
2023-04-28T04:46:58.180Z,66.30
2023-04-28T04:49:26.352Z,66.11
2023-04-28T04:51:53.497Z,66.06
2023-04-28T04:54:20.334Z,65.71
2023-04-28T04:56:47.691Z,65.72
2023-04-28T04:59:18.593Z,65.53
2023-04-28T05:01:53.417Z,65.51
2023-04-28T05:04:20.527Z,65.71
2023-04-28T05:06:47.993Z,65.77
2023-04-28T05:09:15.008Z,65.80
2023-04-28T05:11:41.959Z,65.75
2023-04-28T05:14:08.772Z,65.48
2023-04-28T05:16:36.363Z,65.79
2023-04-28T05:19:09.812Z,65.67
2023-04-28T05:21:36.713Z,65.69
2023-04-28T05:24:03.772Z,65.60
2023-04-28T05:26:30.893Z,65.89
2023-04-28T05:29:01.372Z,66.03
2023-04-28T05:31:28.786Z,66.14
2023-04-28T05:33:55.618Z,65.80
2023-04-28T05:36:22.449Z,65.94
2023-04-28T05:38:49.420Z,65.68
2023-04-28T05:41:16.562Z,65.51
2023-04-28T05:43:44.328Z,65.02
2023-04-28T05:46:28.153Z,64.57
2023-04-28T05:48:57.155Z,64.24
2023-04-28T05:51:24.102Z,63.89
2023-04-28T05:53:52.276Z,63.55
2023-04-28T05:56:20.085Z,63.33
2023-04-28T05:58:48.156Z,62.91
2023-04-28T06:01:14.940Z,62.86
2023-04-28T06:03:42.287Z,62.46
2023-04-28T06:06:10.305Z,61.62
2023-04-28T06:08:37.960Z,60.74
2023-04-28T06:11:05.840Z,60.40
2023-04-28T06:13:32.863Z,59.90
2023-04-28T06:15:59.842Z,59.88
2023-04-28T06:18:27.371Z,59.35
2023-04-28T06:20:54.305Z,59.59
2023-04-28T06:23:21.247Z,60.12
2023-04-28T06:25:53.838Z,60.22
2023-04-28T06:28:20.864Z,60.32
2023-04-28T06:30:47.712Z,60.31
2023-04-28T06:33:14.685Z,60.12
2023-04-28T06:35:41.601Z,60.50
2023-04-28T06:38:08.532Z,60.42
2023-04-28T06:40:37.468Z,60.46
2023-04-28T06:43:06.036Z,60.94
2023-04-28T06:45:40.134Z,60.89
2023-04-28T06:48:08.169Z,60.58
2023-04-28T06:50:38.433Z,60.90
2023-04-28T06:53:07.761Z,61.26
2023-04-28T06:55:34.631Z,61.27
2023-04-28T06:58:01.720Z,61.21
2023-04-28T07:00:28.661Z,61.17
2023-04-28T07:02:56.047Z,60.77
2023-04-28T07:05:22.982Z,59.76
2023-04-28T07:07:49.788Z,59.38
2023-04-28T07:10:16.788Z,59.21
2023-04-28T07:12:43.717Z,58.78
2023-04-28T07:15:10.852Z,58.21
2023-04-28T07:17:37.983Z,57.94
2023-04-28T07:20:05.762Z,57.87
2023-04-28T07:22:32.490Z,57.33
2023-04-28T07:24:59.339Z,57.30
2023-04-28T07:27:26.394Z,56.58
2023-04-28T07:29:53.232Z,56.42
2023-04-28T07:32:20.574Z,55.84
2023-04-28T07:34:47.648Z,55.52
2023-04-28T07:37:14.544Z,54.60
2023-04-28T07:39:41.980Z,53.83
2023-04-28T07:42:08.876Z,53.82
2023-04-28T07:44:35.617Z,52.96
2023-04-28T07:47:02.817Z,53.44
2023-04-28T07:49:29.715Z,52.69
2023-04-28T07:51:56.711Z,52.72
2023-04-28T07:54:23.613Z,51.43
2023-04-28T07:56:50.439Z,51.33
2023-04-28T07:59:17.286Z,50.87
2023-04-28T08:01:44.160Z,51.10
2023-04-28T08:04:12.172Z,51.52
2023-04-28T08:06:40.245Z,51.60
2023-04-28T08:09:07.317Z,51.03
2023-04-28T08:11:34.766Z,51.59
2023-04-28T08:14:03.406Z,51.92
2023-04-28T08:16:30.961Z,51.73
2023-04-28T08:18:58.075Z,51.39
2023-04-28T08:21:25.114Z,51.12
2023-04-28T08:23:51.812Z,50.91
2023-04-28T08:26:18.645Z,51.25
2023-04-28T08:28:45.529Z,51.13
2023-04-28T08:31:12.496Z,51.13
2023-04-28T08:33:39.938Z,50.73
2023-04-28T08:36:08.022Z,50.68
2023-04-28T08:38:35.058Z,51.26
2023-04-28T08:41:03.737Z,51.42
2023-04-28T08:43:32.565Z,51.57
2023-04-28T08:45:59.384Z,51.38
2023-04-28T08:48:26.523Z,51.84
2023-04-28T08:50:54.541Z,51.83
2023-04-28T08:53:28.216Z,50.99
2023-04-28T08:55:57.078Z,50.60
2023-04-28T08:58:24.772Z,50.85
2023-04-28T09:00:52.303Z,50.73
2023-04-28T09:03:19.336Z,49.63
2023-04-28T09:05:46.682Z,49.48
2023-04-28T09:08:14.260Z,50.68
2023-04-28T09:10:41.264Z,50.82
2023-04-28T09:13:08.162Z,51.27
2023-04-28T09:15:36.161Z,50.13
2023-04-28T09:18:03.852Z,50.41
2023-04-28T09:20:31.557Z,50.59
2023-04-28T09:23:12.348Z,50.79
2023-04-28T09:25:39.472Z,50.38
2023-04-28T09:28:22.242Z,49.91
2023-04-28T09:30:49.128Z,49.72
2023-04-28T09:35:43.835Z,50.37
2023-04-28T09:38:10.909Z,49.87
2023-04-28T09:40:51.651Z,50.07
2023-04-28T09:43:23.030Z,50.79
2023-04-28T09:45:49.975Z,51.07
2023-04-28T09:48:17.401Z,49.67
2023-04-28T09:50:44.306Z,49.61
2023-04-28T09:53:11.326Z,49.85
2023-04-28T09:55:38.707Z,49.37
2023-04-28T09:58:06.209Z,49.43
2023-04-28T10:00:33.665Z,49.46
2023-04-28T10:03:00.600Z,48.49
2023-04-28T10:05:27.852Z,49.04
2023-04-28T10:07:55.556Z,48.28
2023-04-28T10:10:22.675Z,47.83
2023-04-28T10:12:49.516Z,47.29
2023-04-28T10:15:16.664Z,47.64
2023-04-28T10:17:43.638Z,47.64
2023-04-28T10:20:10.670Z,48.07
2023-04-28T10:23:02.823Z,47.83
2023-04-28T10:25:34.457Z,48.10
2023-04-28T10:28:01.594Z,48.18
2023-04-28T10:30:31.628Z,47.65
2023-04-28T10:33:22.114Z,47.96
2023-04-28T10:35:49.165Z,48.29
2023-04-28T10:38:21.912Z,48.59
2023-04-28T10:40:49.329Z,48.56
2023-04-28T10:43:25.858Z,48.59
2023-04-28T10:45:56.068Z,48.57
2023-04-28T10:48:24.470Z,49.00
2023-04-28T10:51:03.979Z,48.92
2023-04-28T10:53:47.448Z,48.92
2023-04-28T10:56:16.874Z,49.74
2023-04-28T10:58:46.245Z,49.44
2023-04-28T11:01:24.372Z,49.33
2023-04-28T11:03:54.757Z,48.53
2023-04-28T11:06:26.980Z,48.51
2023-04-28T11:08:57.969Z,48.60
2023-04-28T11:11:26.085Z,48.49
2023-04-28T11:13:54.456Z,48.85
2023-04-28T11:16:22.405Z,48.28
2023-04-28T11:18:51.778Z,48.19
2023-04-28T11:21:20.788Z,48.30
2023-04-28T11:23:47.641Z,47.96
2023-04-28T11:26:14.610Z,48.17
2023-04-28T11:28:51.609Z,48.01
2023-04-28T11:31:23.674Z,47.78
2023-04-28T11:34:19.973Z,47.95
2023-04-28T11:36:46.948Z,47.62
2023-04-28T11:39:14.367Z,48.17
2023-04-28T11:41:41.778Z,48.15
2023-04-28T11:44:18.708Z,48.05
2023-04-28T11:46:55.955Z,48.28
2023-04-28T11:49:26.073Z,47.64
2023-04-28T11:51:52.912Z,47.82
2023-04-28T11:54:29.272Z,47.24
2023-04-28T11:56:56.728Z,47.86
2023-04-28T12:01:59.440Z,47.80
2023-04-28T12:04:36.762Z,47.98
2023-04-28T12:07:10.578Z,48.09
2023-04-28T12:09:38.088Z,47.38
2023-04-28T12:12:05.981Z,47.19
2023-04-28T12:14:35.866Z,47.18
2023-04-28T12:17:02.909Z,47.03
2023-04-28T12:19:29.773Z,46.84
2023-04-28T12:22:01.074Z,46.25
2023-04-28T12:24:27.904Z,45.67
2023-04-28T12:26:54.752Z,45.84
2023-04-28T12:29:38.368Z,45.28
2023-04-28T12:32:06.453Z,45.44
2023-04-28T12:34:33.702Z,45.97
2023-04-28T12:37:01.792Z,46.28
2023-04-28T12:39:28.669Z,46.00
2023-04-28T12:41:55.504Z,46.32
2023-04-28T12:44:25.546Z,45.58
2023-04-28T12:46:52.416Z,45.30
2023-04-28T12:49:19.260Z,44.66
2023-04-28T12:51:46.229Z,45.30
2023-04-28T12:54:13.160Z,46.16
2023-04-28T12:56:39.889Z,45.76
2023-04-28T12:59:07.127Z,45.66
2023-04-28T13:01:34.082Z,45.66
2023-04-28T13:04:01.002Z,45.04
2023-04-28T13:06:28.857Z,45.46
2023-04-28T13:08:55.733Z,44.45
2023-04-28T13:11:24.962Z,44.29
2023-04-28T13:13:53.021Z,43.87
2023-04-28T13:16:19.976Z,43.62
2023-04-28T13:18:46.905Z,44.11
2023-04-28T13:21:14.039Z,44.48
2023-04-28T13:23:41.117Z,45.14
2023-04-28T13:26:08.175Z,45.22
2023-04-28T13:28:34.948Z,44.68
2023-04-28T13:31:01.751Z,44.97
2023-04-28T13:33:31.528Z,45.24
2023-04-28T13:35:59.084Z,45.15
2023-04-28T13:38:26.342Z,44.57
2023-04-28T13:40:53.331Z,44.08
2023-04-28T13:43:20.186Z,42.97
2023-04-28T13:45:47.086Z,43.41
2023-04-28T13:48:14.020Z,42.99
2023-04-28T13:50:40.976Z,43.41
2023-04-28T13:53:08.565Z,43.69
2023-04-28T13:55:35.631Z,44.11
2023-04-28T13:58:04.916Z,44.05
2023-04-28T14:00:32.669Z,43.76
2023-04-28T14:03:00.255Z,43.18
2023-04-28T14:05:29.724Z,43.16
2023-04-28T14:07:57.144Z,43.01
2023-04-28T14:10:23.914Z,43.00
2023-04-28T14:12:50.771Z,43.77
2023-04-28T14:15:18.291Z,43.35
2023-04-28T14:17:45.164Z,43.83
2023-04-28T14:20:12.082Z,44.13
2023-04-28T14:22:39.426Z,43.80
2023-04-28T14:25:06.785Z,42.95
2023-04-28T14:27:33.614Z,43.13
2023-04-28T14:30:00.871Z,43.35
2023-04-28T14:32:28.056Z,42.54
2023-04-28T14:34:54.882Z,42.50
2023-04-28T14:37:21.745Z,42.71
2023-04-28T14:39:48.555Z,43.07
2023-04-28T14:42:15.304Z,42.77
2023-04-28T14:44:42.133Z,42.00
2023-04-28T14:47:09.181Z,42.08
2023-04-28T14:49:35.924Z,42.46
2023-04-28T14:52:02.658Z,42.31
2023-04-28T14:54:29.392Z,42.38
2023-04-28T14:56:56.470Z,42.49
2023-04-28T14:59:23.213Z,42.21
2023-04-28T15:01:51.635Z,41.82
2023-04-28T15:06:45.693Z,42.28
2023-04-28T15:09:12.855Z,41.91
2023-04-28T15:11:39.758Z,41.74
2023-04-28T15:14:06.779Z,42.01
2023-04-28T15:16:33.665Z,41.92
2023-04-28T15:19:00.633Z,41.17
2023-04-28T15:21:28.765Z,40.57
2023-04-28T15:23:55.519Z,39.96
2023-04-28T15:26:23.803Z,40.28
2023-04-28T15:28:50.626Z,40.00
2023-04-28T15:31:17.369Z,40.08
2023-04-28T15:33:44.310Z,40.45
2023-04-28T15:36:12.693Z,40.57
2023-04-28T15:38:42.090Z,40.86
2023-04-28T15:41:09.454Z,40.74
2023-04-28T15:43:37.516Z,40.23
2023-04-28T15:46:04.798Z,40.15
2023-04-28T15:48:31.742Z,39.97
2023-04-28T15:50:58.636Z,39.88
2023-04-28T15:53:26.015Z,40.03
2023-04-28T15:55:52.738Z,39.68
2023-04-28T15:58:20.334Z,40.07
2023-04-28T16:00:47.181Z,40.04
2023-04-28T16:03:14.246Z,40.46
2023-04-28T16:05:41.351Z,40.74
2023-04-28T16:08:08.114Z,40.79
2023-04-28T16:10:35.148Z,40.96
2023-04-28T16:13:02.096Z,40.55
2023-04-28T16:15:28.962Z,40.46
2023-04-28T16:17:56.989Z,40.78
2023-04-28T16:20:23.892Z,41.03
2023-04-28T16:22:51.005Z,41.33
2023-04-28T16:25:17.694Z,41.90
2023-04-28T16:27:44.541Z,41.58
2023-04-28T16:30:11.875Z,41.31
2023-04-28T16:32:39.090Z,41.21
2023-04-28T16:35:06.676Z,41.39
2023-04-28T16:37:33.600Z,41.58
2023-04-28T16:40:00.840Z,40.78
2023-04-28T16:42:27.782Z,41.05
2023-04-28T16:44:54.744Z,41.71
2023-04-28T16:47:21.687Z,41.93
2023-04-28T16:49:48.847Z,41.95
2023-04-28T16:52:16.861Z,42.17
2023-04-28T16:54:43.833Z,42.01
2023-04-28T16:57:10.884Z,42.19
2023-04-28T16:59:37.851Z,42.62
2023-04-28T17:02:04.989Z,42.55
2023-04-28T17:04:32.299Z,42.56
2023-04-28T17:06:59.400Z,42.45
2023-04-28T17:09:27.539Z,42.48
2023-04-28T17:11:55.143Z,42.36
2023-04-28T17:14:22.103Z,42.22
2023-04-28T17:16:49.058Z,41.78
2023-04-28T17:19:16.972Z,41.81
2023-04-28T17:21:44.030Z,41.46
2023-04-28T17:24:10.879Z,41.58
2023-04-28T17:26:37.817Z,41.39
2023-04-28T17:29:04.889Z,41.47
2023-04-28T17:31:31.825Z,41.37
2023-04-28T17:33:59.739Z,41.45
2023-04-28T17:36:27.409Z,41.76
2023-04-28T17:38:54.784Z,41.72
2023-04-28T17:41:21.760Z,41.90
2023-04-28T17:43:49.080Z,41.79
2023-04-28T17:46:16.729Z,42.04
2023-04-28T17:48:44.010Z,42.22
2023-04-28T17:51:10.835Z,42.41
2023-04-28T17:53:39.332Z,42.55
2023-04-28T17:56:06.579Z,42.69
2023-04-28T17:58:33.748Z,42.83
2023-04-28T18:01:03.994Z,42.82
2023-04-28T18:03:31.469Z,42.89
2023-04-28T18:05:58.354Z,43.00
2023-04-28T18:08:25.116Z,43.17
2023-04-28T18:10:51.891Z,43.34
2023-04-28T18:13:18.773Z,43.49
2023-04-28T18:15:46.431Z,43.37
2023-04-28T18:18:13.327Z,43.47
2023-04-28T18:20:41.669Z,43.77
2023-04-28T18:23:09.059Z,43.86
2023-04-28T18:25:37.205Z,43.81
2023-04-28T18:28:04.150Z,43.69
2023-04-28T18:30:40.182Z,43.63
2023-04-28T18:33:07.137Z,43.59
2023-04-28T18:35:34.299Z,43.61
2023-04-28T18:38:01.221Z,43.92
2023-04-28T18:40:34.932Z,43.65
2023-04-28T18:43:02.387Z,43.57
2023-04-28T18:45:34.513Z,43.82
2023-04-28T18:48:05.683Z,44.00
2023-04-28T18:50:32.945Z,44.20
2023-04-28T18:53:02.652Z,44.07
2023-04-28T18:55:29.498Z,44.19
2023-04-28T18:57:56.644Z,44.17
2023-04-28T19:00:23.537Z,44.11
2023-04-28T19:02:50.609Z,44.36
2023-04-28T19:05:17.625Z,44.49
2023-04-28T19:07:44.468Z,44.83
2023-04-28T19:10:12.254Z,44.70
2023-04-28T19:12:39.037Z,44.71
2023-04-28T19:15:06.268Z,44.92
2023-04-28T19:17:33.299Z,44.71
2023-04-28T19:20:00.455Z,44.75
2023-04-28T19:22:31.630Z,45.10
2023-04-28T19:24:59.112Z,44.94
2023-04-28T19:27:28.610Z,44.82
2023-04-28T19:29:55.477Z,45.13
2023-04-28T19:32:22.625Z,45.29
2023-04-28T19:34:50.556Z,45.10
2023-04-28T19:37:17.502Z,45.30
2023-04-28T19:39:44.640Z,45.17
2023-04-28T19:42:11.405Z,45.08
2023-04-28T19:44:38.437Z,44.93
2023-04-28T19:47:06.306Z,45.08
2023-04-28T19:49:33.559Z,45.29
2023-04-28T19:52:00.695Z,45.23
2023-04-28T19:54:27.842Z,45.18
2023-04-28T19:56:55.304Z,45.09
2023-04-28T19:59:22.250Z,45.16
2023-04-28T20:01:50.256Z,45.11
2023-04-28T20:04:17.834Z,45.34
2023-04-28T20:06:45.155Z,45.17
2023-04-28T20:09:11.970Z,45.15
2023-04-28T20:11:38.728Z,45.28
2023-04-28T20:14:05.678Z,45.63
2023-04-28T20:16:33.216Z,45.84
2023-04-28T20:19:00.064Z,45.81
2023-04-28T20:21:26.994Z,45.59
2023-04-28T20:23:53.705Z,45.71
2023-04-28T20:26:20.858Z,45.96
2023-04-28T20:28:48.675Z,46.01
2023-04-28T20:31:15.833Z,46.24
2023-04-28T20:33:42.651Z,46.16
2023-04-28T20:36:09.493Z,46.20
2023-04-28T20:38:37.568Z,46.27
2023-04-28T20:41:04.845Z,46.37
2023-04-28T20:43:32.604Z,46.42
2023-04-28T20:45:59.472Z,46.68
2023-04-28T20:48:26.375Z,46.68
2023-04-28T20:50:55.224Z,46.58
2023-04-28T20:53:22.409Z,46.72
2023-04-28T20:55:49.897Z,46.81
2023-04-28T20:58:17.032Z,46.87
2023-04-28T21:00:44.392Z,46.91
2023-04-28T21:03:16.033Z,47.03
2023-04-28T21:05:44.713Z,47.00
2023-04-28T21:08:12.211Z,46.92
2023-04-28T21:10:39.062Z,47.05
2023-04-28T21:13:07.019Z,46.89
2023-04-28T21:15:37.655Z,46.85
2023-04-28T21:18:04.689Z,47.02
2023-04-28T21:20:31.601Z,47.31
2023-04-28T21:22:58.749Z,47.29
2023-04-28T21:25:26.202Z,47.33
2023-04-28T21:27:53.439Z,47.33
2023-04-28T21:30:20.589Z,47.45
2023-04-28T21:32:47.550Z,47.37
2023-04-28T21:35:14.616Z,47.61
2023-04-28T21:37:41.761Z,47.65
2023-04-28T21:40:09.216Z,47.81
2023-04-28T21:42:36.171Z,48.01
2023-04-28T21:45:03.097Z,48.03
2023-04-28T21:47:30.165Z,48.44
2023-04-28T21:49:57.040Z,48.40
2023-04-28T21:52:23.941Z,48.32
2023-04-28T21:54:50.983Z,48.30
2023-04-28T21:57:17.700Z,48.44
2023-04-28T21:59:44.788Z,48.37
2023-04-28T22:02:12.236Z,48.15
2023-04-28T22:04:39.265Z,48.43
2023-04-28T22:07:06.740Z,48.40
2023-04-28T22:09:33.678Z,48.42
2023-04-28T22:12:00.618Z,48.64
2023-04-28T22:14:40.222Z,48.54
2023-04-28T22:17:08.233Z,48.86
2023-04-28T22:19:34.997Z,48.92
2023-04-28T22:22:01.830Z,48.89
2023-04-28T22:24:28.657Z,48.91
2023-04-28T22:26:55.505Z,48.98
2023-04-28T22:29:22.678Z,49.34
2023-04-28T22:31:49.590Z,49.27
2023-04-28T22:34:16.963Z,49.49
2023-04-28T22:36:45.136Z,49.18
2023-04-28T22:39:11.966Z,49.62
2023-04-28T22:41:38.735Z,49.58
2023-04-28T22:44:05.624Z,49.72
2023-04-28T22:46:32.551Z,49.91
2023-04-28T22:48:59.334Z,49.96
2023-04-28T22:51:26.096Z,50.12
2023-04-28T22:53:54.289Z,50.14
2023-04-28T22:56:21.596Z,50.03
2023-04-28T22:58:48.439Z,50.26
2023-04-28T23:01:15.213Z,50.23
2023-04-28T23:03:42.356Z,50.39
2023-04-28T23:06:09.521Z,50.65
2023-04-28T23:08:36.354Z,50.86
2023-04-28T23:11:06.154Z,50.43
2023-04-28T23:13:33.013Z,50.51
2023-04-28T23:16:02.817Z,50.30
2023-04-28T23:18:31.104Z,50.66
2023-04-28T23:20:58.007Z,50.75
2023-04-28T23:23:24.748Z,50.65
2023-04-28T23:25:52.144Z,50.95
2023-04-28T23:28:19.109Z,50.95
2023-04-28T23:30:46.016Z,51.09
2023-04-28T23:33:12.940Z,51.20
2023-04-28T23:35:40.598Z,51.28
2023-04-28T23:38:07.853Z,51.39
2023-04-28T23:40:34.604Z,51.16
2023-04-28T23:43:01.446Z,50.95
2023-04-28T23:45:28.283Z,51.24
2023-04-28T23:47:55.243Z,51.34
2023-04-28T23:50:22.339Z,51.29
2023-04-28T23:52:49.131Z,51.50
2023-04-28T23:55:16.002Z,51.22
2023-04-28T23:57:42.897Z,51.16
